createdAt,value
2022-09-01T00:00:29.980Z,3.17
2022-09-01T00:02:58.093Z,3.22
2022-09-01T00:05:26.106Z,3.35
2022-09-01T00:07:53.924Z,2.78
2022-09-01T00:10:21.871Z,3.47
2022-09-01T00:12:49.663Z,3.38
2022-09-01T00:15:17.654Z,2.92
2022-09-01T00:17:46.987Z,3.13
2022-09-01T00:20:20.062Z,3.47
2022-09-01T00:22:48.630Z,3.17
2022-09-01T00:25:18.850Z,2.90
2022-09-01T00:27:47.787Z,2.80
2022-09-01T00:30:15.941Z,3.92
2022-09-01T00:32:46.755Z,3.38
2022-09-01T00:35:17.353Z,3.28
2022-09-01T00:37:45.546Z,3.42
2022-09-01T00:40:16.426Z,3.20
2022-09-01T00:42:45.330Z,2.92
2022-09-01T00:45:13.390Z,3.25
2022-09-01T00:47:41.393Z,3.03
2022-09-01T00:50:12.851Z,2.75
2022-09-01T00:52:46.387Z,3.65
2022-09-01T00:55:18.770Z,3.20
2022-09-01T00:57:47.601Z,2.92
2022-09-01T01:00:19.020Z,3.60
2022-09-01T01:02:48.473Z,3.13
2022-09-01T01:05:17.282Z,3.45
2022-09-01T01:07:48.013Z,3.58
2022-09-01T01:10:17.726Z,2.97
2022-09-01T01:12:47.403Z,3.13
2022-09-01T01:15:17.200Z,3.10
2022-09-01T01:17:45.346Z,3.20
2022-09-01T01:20:35.571Z,3.13
2022-09-01T01:23:11.229Z,3.42
2022-09-01T01:25:43.315Z,3.65
2022-09-01T01:28:15.758Z,3.35
2022-09-01T01:30:52.711Z,2.70
2022-09-01T01:33:23.425Z,3.08
2022-09-01T01:35:53.823Z,3.38
2022-09-01T01:38:22.925Z,3.17
2022-09-01T01:40:54.080Z,2.83
2022-09-01T01:43:23.066Z,3.85
2022-09-01T01:45:52.306Z,3.65
2022-09-01T01:48:23.125Z,3.55
2022-09-01T01:50:52.386Z,3.47
2022-09-01T01:53:21.014Z,2.92
2022-09-01T01:55:50.423Z,2.97
2022-09-01T01:58:20.509Z,3.15
2022-09-01T02:00:51.366Z,3.20
2022-09-01T02:03:22.050Z,3.58
2022-09-01T02:05:53.572Z,3.47
2022-09-01T02:08:26.078Z,4.07
2022-09-01T02:10:58.077Z,3.95
2022-09-01T02:13:30.354Z,3.55
2022-09-01T02:16:02.098Z,3.45
2022-09-01T02:18:34.300Z,3.70
2022-09-01T02:21:03.274Z,4.57
2022-09-01T02:23:32.924Z,4.10
2022-09-01T02:26:16.182Z,4.30
2022-09-01T02:28:54.759Z,4.20
2022-09-01T02:31:25.241Z,4.88
2022-09-01T02:33:54.441Z,4.35
2022-09-01T02:36:25.445Z,5.10
2022-09-01T02:38:56.463Z,5.72
2022-09-01T02:41:29.509Z,5.40
2022-09-01T02:44:02.290Z,5.70
2022-09-01T02:46:31.211Z,5.80
2022-09-01T02:49:00.657Z,5.72
2022-09-01T02:51:28.823Z,5.70
2022-09-01T02:53:56.930Z,5.45
2022-09-01T02:56:27.409Z,6.22
2022-09-01T02:58:56.718Z,5.93
2022-09-01T03:01:29.591Z,6.15
2022-09-01T03:04:01.272Z,5.40
2022-09-01T03:06:34.193Z,6.20
2022-09-01T03:09:03.942Z,5.40
2022-09-01T03:11:37.141Z,5.53
2022-09-01T03:14:05.499Z,5.43
2022-09-01T03:16:35.562Z,6.57
2022-09-01T03:19:04.286Z,6.22
2022-09-01T03:21:32.876Z,6.07
2022-09-01T03:24:02.140Z,6.72
2022-09-01T03:26:30.648Z,6.28
2022-09-01T03:28:59.439Z,5.85
2022-09-01T03:31:31.163Z,5.45
2022-09-01T03:34:03.519Z,5.65
2022-09-01T03:36:33.325Z,5.53
2022-09-01T03:39:01.983Z,5.18
2022-09-01T03:41:32.153Z,5.25
2022-09-01T03:44:00.673Z,5.75
2022-09-01T03:46:36.279Z,5.43
2022-09-01T03:49:07.319Z,5.90
2022-09-01T03:51:39.454Z,6.00
2022-09-01T03:54:07.622Z,5.72
2022-09-01T03:56:35.670Z,4.97
2022-09-01T03:59:03.774Z,5.45
2022-09-01T04:01:33.695Z,6.07
2022-09-01T04:04:01.848Z,6.13
2022-09-01T04:06:31.045Z,6.03
2022-09-01T04:09:03.289Z,5.68
2022-09-01T04:11:32.413Z,6.10
2022-09-01T04:14:03.023Z,5.85
2022-09-01T04:16:51.947Z,5.78
2022-09-01T04:19:26.504Z,5.72
2022-09-01T04:21:59.723Z,5.90
2022-09-01T04:24:29.588Z,5.10
2022-09-01T04:27:00.288Z,5.90
2022-09-01T04:29:28.292Z,6.00
2022-09-01T04:31:56.999Z,5.18
2022-09-01T04:34:26.291Z,5.57
2022-09-01T04:36:57.014Z,5.00
2022-09-01T04:39:25.279Z,5.50
2022-09-01T04:41:53.369Z,5.63
2022-09-01T04:44:22.221Z,5.82
2022-09-01T04:46:51.019Z,5.85
2022-09-01T04:49:22.454Z,6.20
2022-09-01T04:51:54.012Z,5.50
2022-09-01T04:54:23.982Z,4.82
2022-09-01T04:56:54.141Z,6.43
2022-09-01T04:59:24.220Z,5.18
2022-09-01T05:01:54.976Z,5.60
2022-09-01T05:04:27.348Z,6.55
2022-09-01T05:07:00.781Z,5.85
2022-09-01T05:09:31.442Z,5.95
2022-09-01T05:12:12.857Z,5.63
2022-09-01T05:14:45.250Z,6.30
2022-09-01T05:17:14.777Z,6.05
2022-09-01T05:19:47.691Z,5.93
2022-09-01T05:22:16.603Z,5.57
2022-09-01T05:24:45.790Z,6.05
2022-09-01T05:27:14.540Z,6.38
2022-09-01T05:29:42.655Z,6.72
2022-09-01T05:32:10.860Z,6.28
2022-09-01T05:34:39.796Z,5.60
2022-09-01T05:37:12.227Z,5.63
2022-09-01T05:39:40.296Z,5.70
2022-09-01T05:42:09.587Z,5.68
2022-09-01T05:44:39.438Z,5.63
2022-09-01T05:47:10.142Z,4.85
2022-09-01T05:49:48.090Z,5.85
2022-09-01T05:52:16.290Z,6.07
2022-09-01T05:54:44.141Z,5.65
2022-09-01T05:57:33.431Z,5.95
2022-09-01T06:00:02.309Z,5.68
2022-09-01T06:02:31.000Z,6.35
2022-09-01T06:05:00.322Z,6.20
2022-09-01T06:07:28.834Z,6.60
2022-09-01T06:09:57.045Z,5.53
2022-09-01T06:12:28.336Z,6.38
2022-09-01T06:14:57.135Z,6.70
2022-09-01T06:17:28.516Z,6.10
2022-09-01T06:19:57.767Z,6.20
2022-09-01T06:22:27.947Z,5.82
2022-09-01T06:25:01.797Z,5.47
2022-09-01T06:27:31.727Z,4.77
2022-09-01T06:29:59.748Z,4.80
2022-09-01T06:32:27.961Z,4.82
2022-09-01T06:34:58.133Z,4.70
2022-09-01T06:37:27.127Z,4.40
2022-09-01T06:39:55.389Z,4.30
2022-09-01T06:42:23.578Z,3.80
2022-09-01T06:44:53.143Z,4.25
2022-09-01T06:47:21.207Z,4.22
2022-09-01T06:49:53.557Z,4.30
2022-09-01T06:52:23.797Z,4.15
2022-09-01T06:54:54.979Z,3.85
2022-09-01T07:03:08.523Z,3.92
2022-09-01T07:08:25.436Z,4.00
2022-09-01T07:16:51.754Z,3.85
2022-09-01T07:19:21.202Z,4.00
2022-09-01T07:24:37.415Z,3.45
2022-09-01T07:27:09.341Z,3.53
2022-09-01T07:29:37.380Z,3.45
2022-09-01T07:34:56.174Z,3.50
2022-09-01T07:43:09.650Z,2.88
2022-09-01T07:45:47.283Z,3.25
2022-09-01T07:53:57.406Z,3.00
2022-09-01T07:56:26.272Z,2.90
2022-09-01T07:58:54.360Z,3.00
2022-09-01T08:01:25.038Z,2.72
2022-09-01T08:03:56.077Z,3.42
2022-09-01T08:06:27.292Z,2.92
2022-09-01T08:08:58.531Z,2.97
2022-09-01T08:14:18.161Z,2.50
2022-09-01T08:16:54.103Z,2.63
2022-09-01T08:19:24.859Z,3.28
2022-09-01T08:21:52.846Z,2.40
2022-09-01T08:24:21.986Z,2.90
2022-09-01T08:26:49.769Z,2.55
2022-09-01T08:29:17.895Z,3.05
2022-09-01T08:31:47.776Z,2.80
2022-09-01T08:34:17.018Z,2.45
2022-09-01T08:36:46.261Z,2.20
2022-09-01T08:39:14.080Z,2.83
2022-09-01T08:41:46.830Z,2.40
2022-09-01T08:44:28.533Z,2.58
2022-09-01T08:47:03.170Z,2.10
2022-09-01T08:49:42.492Z,2.05
2022-09-01T08:52:24.150Z,2.33
2022-09-01T08:54:57.573Z,1.98
2022-09-01T08:57:32.200Z,2.10
2022-09-01T09:00:00.261Z,2.22
2022-09-01T09:02:47.884Z,2.05
2022-09-01T09:05:29.237Z,2.30
2022-09-01T09:08:14.398Z,1.80
2022-09-01T09:10:52.230Z,1.88
2022-09-01T09:13:25.682Z,2.58
2022-09-01T09:16:13.694Z,2.17
2022-09-01T09:19:00.624Z,1.92
2022-09-01T09:21:33.692Z,2.00
2022-09-01T09:24:11.157Z,1.80
2022-09-01T09:26:42.528Z,2.60
2022-09-01T09:29:10.706Z,2.30
2022-09-01T09:31:45.951Z,2.53
2022-09-01T09:34:29.720Z,2.05
2022-09-01T09:36:57.546Z,1.83
2022-09-01T09:39:30.464Z,2.22
2022-09-01T09:42:11.952Z,1.98
2022-09-01T09:44:45.312Z,1.60
2022-09-01T09:47:43.727Z,2.17
2022-09-01T09:50:20.847Z,2.00
2022-09-01T09:52:49.613Z,1.90
2022-09-01T09:55:26.564Z,1.60
2022-09-01T09:57:57.509Z,1.48
2022-09-01T10:00:28.425Z,1.40
2022-09-01T10:03:01.549Z,1.30
2022-09-01T10:05:39.754Z,1.40
2022-09-01T10:08:10.365Z,1.55
2022-09-01T10:10:43.102Z,1.10
2022-09-01T10:13:15.671Z,1.30
2022-09-01T10:15:51.237Z,1.50
2022-09-01T10:18:22.248Z,1.05
2022-09-01T10:21:01.765Z,1.10
2022-09-01T10:23:31.686Z,1.10
2022-09-01T10:26:06.505Z,1.20
2022-09-01T10:28:49.937Z,1.27
2022-09-01T10:31:20.145Z,1.08
2022-09-01T10:33:48.547Z,1.50
2022-09-01T10:36:18.254Z,1.17
2022-09-01T10:38:53.530Z,1.15
2022-09-01T10:41:48.267Z,1.67
2022-09-01T10:44:21.303Z,1.63
2022-09-01T10:46:50.834Z,1.30
2022-09-01T10:50:07.626Z,1.65
2022-09-01T10:52:57.774Z,1.23
2022-09-01T10:55:33.713Z,1.10
2022-09-01T11:01:11.696Z,1.10
2022-09-01T11:03:56.552Z,0.93
2022-09-01T11:07:17.234Z,1.00
2022-09-01T11:10:31.969Z,1.52
2022-09-01T11:13:23.176Z,1.10
2022-09-01T11:15:52.906Z,1.52
2022-09-01T11:18:27.592Z,1.00
2022-09-01T11:20:57.960Z,1.33
2022-09-01T11:23:30.508Z,1.27
2022-09-01T11:28:48.457Z,1.27
2022-09-01T11:31:23.465Z,1.27
2022-09-01T11:34:24.672Z,1.20
2022-09-01T11:37:00.319Z,1.38
2022-09-01T11:39:40.706Z,1.27
2022-09-01T11:42:14.544Z,1.02
2022-09-01T11:44:49.520Z,1.30
2022-09-01T11:47:22.967Z,1.30
2022-09-01T11:49:55.098Z,1.50
2022-09-01T11:52:26.181Z,1.27
2022-09-01T11:54:55.555Z,1.30
2022-09-01T11:57:27.635Z,1.13
2022-09-01T11:59:56.386Z,1.50
2022-09-01T12:02:27.902Z,1.00
2022-09-01T12:04:57.528Z,1.05
2022-09-01T12:07:31.355Z,1.20
2022-09-01T12:09:59.609Z,1.23
2022-09-01T12:12:32.996Z,1.38
2022-09-01T12:15:06.112Z,1.40
2022-09-01T12:17:37.117Z,0.98
2022-09-01T12:20:28.129Z,1.20
2022-09-01T12:22:58.153Z,1.30
2022-09-01T12:25:28.547Z,1.50
2022-09-01T12:27:56.920Z,1.60
2022-09-01T12:30:25.926Z,1.60
2022-09-01T12:33:22.782Z,1.50
2022-09-01T12:35:44.053Z,1.42
2022-09-01T12:38:23.864Z,1.23
2022-09-01T12:40:54.323Z,1.20
2022-09-01T12:43:35.481Z,1.30
2022-09-01T12:46:04.690Z,1.30
2022-09-01T12:48:35.889Z,1.45
2022-09-01T12:51:09.535Z,1.33
2022-09-01T12:53:37.951Z,1.20
2022-09-01T12:56:22.825Z,1.30
2022-09-01T12:58:54.951Z,1.35
2022-09-01T13:01:29.870Z,1.30
2022-09-01T13:04:28.442Z,1.25
2022-09-01T13:07:01.615Z,1.40
2022-09-01T13:09:30.070Z,1.05
2022-09-01T13:12:12.199Z,1.40
2022-09-01T13:14:40.365Z,1.38
2022-09-01T13:17:14.083Z,1.33
2022-09-01T13:19:57.981Z,1.40
2022-09-01T13:22:26.021Z,1.20
2022-09-01T13:24:54.072Z,1.60
2022-09-01T13:27:23.507Z,1.70
2022-09-01T13:29:52.537Z,1.38
2022-09-01T13:32:22.538Z,1.33
2022-09-01T13:34:52.496Z,1.50
2022-09-01T13:37:23.229Z,1.33
2022-09-01T13:39:51.619Z,1.52
2022-09-01T13:42:20.042Z,1.50
2022-09-01T13:44:52.501Z,1.33
2022-09-01T13:47:31.804Z,1.33
2022-09-01T13:50:09.746Z,1.27
2022-09-01T13:52:41.060Z,1.40
2022-09-01T13:55:12.205Z,1.33
2022-09-01T13:57:40.311Z,1.40
2022-09-01T14:00:11.891Z,1.35
2022-09-01T14:02:40.546Z,1.08
2022-09-01T14:05:09.511Z,1.20
2022-09-01T14:07:37.685Z,2.00
2022-09-01T14:10:08.992Z,1.45
2022-09-01T14:12:37.568Z,1.10
2022-09-01T14:15:12.320Z,1.27
2022-09-01T14:17:44.014Z,1.55
2022-09-01T14:20:15.347Z,1.02
2022-09-01T14:22:43.407Z,1.38
2022-09-01T14:25:12.913Z,1.20
2022-09-01T14:27:42.455Z,1.40
2022-09-01T14:30:19.847Z,1.15
2022-09-01T14:35:17.714Z,1.38
2022-09-01T14:37:45.724Z,1.33
2022-09-01T14:40:17.285Z,1.10
2022-09-01T14:42:47.667Z,1.10
2022-09-01T14:45:16.673Z,1.00
2022-09-01T14:47:45.028Z,0.95
2022-09-01T14:50:15.953Z,1.05
2022-09-01T14:52:47.203Z,1.10
2022-09-01T14:55:17.084Z,0.98
2022-09-01T14:57:45.088Z,0.98
2022-09-01T15:00:14.257Z,1.30
2022-09-01T15:02:44.224Z,1.00
2022-09-01T15:05:14.324Z,1.00
2022-09-01T15:07:43.076Z,1.20
2022-09-01T15:10:16.029Z,1.02
2022-09-01T15:12:55.197Z,0.90
2022-09-01T15:15:23.715Z,1.17
2022-09-01T15:17:51.572Z,1.00
2022-09-01T15:20:36.788Z,0.93
2022-09-01T15:23:05.438Z,0.90
2022-09-01T15:25:33.292Z,1.13
2022-09-01T15:28:02.802Z,1.00
2022-09-01T15:30:31.133Z,1.05
2022-09-01T15:32:58.980Z,1.13
2022-09-01T15:35:30.982Z,0.80
2022-09-01T15:37:59.365Z,0.95
2022-09-01T15:40:28.256Z,0.98
2022-09-01T15:42:57.583Z,1.02
2022-09-01T15:45:28.793Z,1.00
2022-09-01T15:47:56.912Z,1.35
2022-09-01T15:50:27.903Z,1.25
2022-09-01T15:52:58.626Z,1.20
2022-09-01T15:55:29.109Z,1.10
2022-09-01T15:57:56.965Z,1.23
2022-09-01T16:00:27.709Z,1.15
2022-09-01T16:02:56.593Z,1.10
2022-09-01T16:05:25.090Z,1.00
2022-09-01T16:07:53.633Z,0.93
2022-09-01T16:10:21.784Z,1.13
2022-09-01T16:12:51.801Z,1.10
2022-09-01T16:15:22.206Z,0.93
2022-09-01T16:18:13.530Z,1.08
2022-09-01T16:20:55.509Z,0.88
2022-09-01T16:23:25.611Z,0.70
2022-09-01T16:25:54.764Z,1.05
2022-09-01T16:28:27.731Z,0.90
2022-09-01T16:31:02.280Z,1.00
2022-09-01T16:33:33.938Z,0.63
2022-09-01T16:36:17.173Z,1.10
2022-09-01T16:38:50.393Z,0.80
2022-09-01T16:41:29.796Z,1.10
2022-09-01T16:44:07.513Z,0.80
2022-09-01T16:46:45.594Z,0.90
2022-09-01T16:49:21.684Z,0.93
2022-09-01T16:51:58.503Z,1.08
2022-09-01T16:54:37.034Z,1.08
2022-09-01T16:57:12.089Z,1.30
2022-09-01T16:59:53.280Z,1.00
2022-09-01T17:02:41.988Z,0.93
2022-09-01T17:05:22.067Z,1.00
2022-09-01T17:07:53.627Z,1.00
2022-09-01T17:10:32.829Z,0.93
2022-09-01T17:13:16.574Z,1.15
2022-09-01T17:15:48.302Z,0.90
2022-09-01T17:18:21.952Z,1.02
2022-09-01T17:20:57.984Z,1.10
2022-09-01T17:23:29.227Z,1.20
2022-09-01T17:26:01.808Z,1.00
2022-09-01T17:28:35.670Z,0.98
2022-09-01T17:31:14.449Z,1.00
2022-09-01T17:33:56.330Z,1.10
2022-09-01T17:36:36.047Z,1.48
2022-09-01T17:39:14.164Z,1.05
2022-09-01T17:41:48.696Z,1.15
2022-09-01T17:44:24.264Z,1.10
2022-09-01T17:47:00.640Z,1.10
2022-09-01T17:49:37.555Z,0.93
2022-09-01T17:52:15.134Z,1.00
2022-09-01T17:54:52.316Z,1.10
2022-09-01T17:57:27.248Z,1.13
2022-09-01T18:00:02.927Z,1.10
2022-09-01T18:03:07.355Z,1.00
2022-09-01T18:05:41.282Z,0.90
2022-09-01T18:08:28.018Z,1.20
2022-09-01T18:10:59.943Z,1.35
2022-09-01T18:13:51.907Z,1.27
2022-09-01T18:16:21.622Z,0.90
2022-09-01T18:18:51.278Z,1.00
2022-09-01T18:21:21.294Z,1.38
2022-09-01T18:23:55.626Z,1.00
2022-09-01T18:26:29.697Z,1.30
2022-09-01T18:28:58.042Z,1.52
2022-09-01T18:31:56.871Z,1.08
2022-09-01T18:34:37.258Z,1.33
2022-09-01T18:37:16.347Z,1.02
2022-09-01T18:39:58.310Z,1.17
2022-09-01T18:42:32.925Z,1.20
2022-09-01T18:45:06.592Z,1.10
2022-09-01T18:47:36.910Z,1.67
2022-09-01T18:50:15.281Z,1.20
2022-09-01T18:52:58.514Z,1.20
2022-09-01T18:55:37.298Z,1.30
2022-09-01T18:58:09.923Z,1.13
2022-09-01T19:00:45.280Z,1.10
2022-09-01T19:03:23.993Z,1.23
2022-09-01T19:06:09.626Z,1.10
2022-09-01T19:11:26.505Z,1.05
2022-09-01T19:14:05.717Z,1.30
2022-09-01T19:16:46.847Z,0.98
2022-09-01T19:19:28.955Z,1.35
2022-09-01T19:21:57.260Z,1.17
2022-09-01T19:24:30.348Z,1.27
2022-09-01T19:27:04.466Z,1.05
2022-09-01T19:29:37.289Z,1.48
2022-09-01T19:32:08.735Z,1.05
2022-09-01T19:34:40.577Z,1.45
2022-09-01T19:37:08.847Z,1.40
2022-09-01T19:39:39.923Z,1.70
2022-09-01T19:42:14.820Z,1.65
2022-09-01T19:44:55.028Z,2.00
2022-09-01T19:47:30.046Z,1.52
2022-09-01T19:50:05.391Z,1.17
2022-09-01T19:52:39.541Z,1.95
2022-09-01T19:55:13.712Z,1.02
2022-09-01T19:57:50.669Z,1.17
2022-09-01T20:00:25.418Z,1.33
2022-09-01T20:03:01.072Z,1.73
2022-09-01T20:05:32.769Z,1.70
2022-09-01T20:08:04.182Z,1.38
2022-09-01T20:10:56.591Z,1.30
2022-09-01T20:14:03.036Z,1.70
2022-09-01T20:16:35.322Z,2.35
2022-09-01T20:19:09.031Z,2.15
2022-09-01T20:21:40.199Z,1.83
2022-09-01T20:24:15.297Z,1.67
2022-09-01T20:26:50.066Z,1.38
2022-09-01T20:29:26.049Z,2.08
2022-09-01T20:31:58.233Z,1.65
2022-09-01T20:34:32.873Z,1.70
2022-09-01T20:37:05.492Z,1.40
2022-09-01T20:39:58.199Z,1.35
2022-09-01T20:42:37.167Z,1.63
2022-09-01T20:45:13.509Z,1.40
2022-09-01T20:47:42.973Z,1.40
2022-09-01T20:50:13.278Z,1.40
2022-09-01T20:52:51.497Z,1.98
2022-09-01T20:55:26.358Z,1.80
2022-09-01T20:58:01.883Z,1.95
2022-09-01T21:00:34.397Z,1.75
2022-09-01T21:03:15.445Z,1.63
2022-09-01T21:05:50.998Z,1.90
2022-09-01T21:08:34.637Z,2.03
2022-09-01T21:11:25.883Z,1.48
2022-09-01T21:14:06.806Z,2.03
2022-09-01T21:16:45.966Z,1.50
2022-09-01T21:19:23.066Z,1.95
2022-09-01T21:22:00.992Z,1.90
2022-09-01T21:24:28.783Z,1.70
2022-09-01T21:26:57.555Z,1.90
2022-09-01T21:29:34.052Z,1.70
2022-09-01T21:32:03.848Z,1.60
2022-09-01T21:34:31.794Z,1.80
2022-09-01T21:37:01.004Z,1.90
2022-09-01T21:39:28.882Z,1.65
2022-09-01T21:41:57.777Z,1.75
2022-09-01T21:44:26.284Z,1.98
2022-09-01T21:46:54.225Z,1.67
2022-09-01T21:49:24.112Z,1.73
2022-09-01T21:51:52.019Z,1.83
2022-09-01T21:54:20.035Z,1.80
2022-09-01T21:56:48.709Z,1.83
2022-09-01T21:59:17.150Z,1.45
2022-09-01T22:01:45.167Z,1.60
2022-09-01T22:04:13.695Z,1.55
2022-09-01T22:06:42.862Z,1.50
2022-09-01T22:09:20.827Z,1.70
2022-09-01T22:11:51.109Z,1.48
2022-09-01T22:14:19.880Z,2.25
2022-09-01T22:16:48.274Z,1.38
2022-09-01T22:19:17.139Z,1.60
2022-09-01T22:21:46.771Z,1.42
2022-09-01T22:24:14.612Z,1.63
2022-09-01T22:26:48.281Z,1.45
2022-09-01T22:29:17.425Z,1.75
2022-09-01T22:31:45.875Z,1.70
2022-09-01T22:34:14.106Z,1.90
2022-09-01T22:36:47.549Z,1.80
2022-09-01T22:39:16.806Z,1.60
2022-09-01T22:41:44.618Z,1.83
2022-09-01T22:44:12.919Z,1.83
2022-09-01T22:46:41.909Z,1.90
2022-09-01T22:49:10.324Z,1.90
2022-09-01T22:51:39.716Z,1.80
2022-09-01T22:54:09.988Z,1.80
2022-09-01T22:56:40.120Z,1.48
2022-09-01T22:59:11.038Z,1.77
2022-09-01T23:01:43.060Z,1.63
2022-09-01T23:04:13.004Z,1.42
2022-09-01T23:06:43.749Z,1.67
2022-09-01T23:09:14.021Z,1.70
2022-09-01T23:11:42.499Z,1.88
2022-09-01T23:14:10.542Z,1.80
2022-09-01T23:16:38.715Z,1.90
2022-09-01T23:19:07.519Z,1.80
2022-09-01T23:21:37.773Z,1.92
2022-09-01T23:24:06.587Z,2.42
2022-09-01T23:26:36.193Z,2.00
2022-09-01T23:29:05.220Z,1.92
2022-09-01T23:31:35.889Z,2.05
2022-09-01T23:34:04.820Z,1.92
2022-09-01T23:36:33.118Z,2.13
2022-09-01T23:39:01.425Z,2.20
2022-09-01T23:41:32.151Z,2.17
2022-09-01T23:44:03.384Z,2.03
2022-09-01T23:46:34.588Z,2.13
2022-09-01T23:49:03.150Z,1.90
2022-09-01T23:51:31.246Z,2.28
2022-09-01T23:53:59.889Z,1.63
2022-09-01T23:56:29.660Z,2.30
2022-09-01T23:58:58.348Z,2.00
